Belvidere, NC (27919)

7:55 PM EDT on April 19, 2015 (GMT -0400)
Northeast Landing | | Change Station
CLOSE
Current Station
Personal Weather Station
Location: Elizabeth City, NC
Elevation: 16 ft
Nearby Weather Stations

Elev 16 ft 36.37 °N, 76.30 °W | Updated 4 minutes ago

Rain
Rain
65.7 °F
Feels Like 65.7 °F
N
13.0
Wind Variable Wind from SE

Today
High -- | Low -- °F
--% Chance of Precip.
Yesterday
High -- | Low -- °F
Precip. -- in
6:27 AM 7:43 PM
New Moon, 2% visible
Pressure 29.95 in
Visibility 2.5 miles
Clouds Few 1600 ft
Mostly Cloudy 3400 ft
Overcast 6500 ft
Dew Point 65 °F
Humidity 99%
Rainfall 0.09 in
Snow Depth Not available.
UV 0 out of 12
Pollen 7.90 out of 12
Air Quality Not available.
Flu Activity Sporadic
SPECI KECG 192347Z 13013G21KT 2 1/2SM +RA BR FEW016 BKN034 OVC065 19/17 A2995 RMK AO2 P0007

More Conditions Fewer Conditions

Pressure 29.95 in
Visibility 2.5 miles
Clouds Few 1600 ft
Mostly Cloudy 3400 ft
Overcast 6500 ft
Dew Point 65 °F
Humidity 99%
Rainfall 0.09 in
Snow Depth Not available.
UV 0 out of 12
Pollen 7.90 out of 12
Air Quality Not available.
Flu Activity Sporadic
SPECI KECG 192347Z 13013G21KT 2 1/2SM +RA BR FEW016 BKN034 OVC065 19/17 A2995 RMK AO2 P0007

More Conditions Fewer Conditions

10-Day Weather Forecast

Almanac

Astronomy

Apr. 19, 2015 Rise Set
Actual Time
Civil Twilight
Nautical Twilight
Astronomical Twilight
Moon
Length of Visible Light
Length of Day
Tomorrow will be .
, % of the Moon is Illuminated

Today's Extremes

State Highs State Lows

Community

WunderPhotos

Upload Photos

1,815,036 photos uploaded!

WunderBlogs® & News

Nearby

Air Quality

  Air Quality AQ Index Pollutant
Not available.

Snow Depth

Station Depth Elevation

Earthquake Activity

City Distance Mag. Time & Date
Minimum magnitude displayed is 2.5.

Coastal Water Temperatures

Place Temperature

Stations

Nearby Weather Stations

Station Location Temp. Windchill Dew Point Humidity Wind Precip. Elev Updated Type